Time;durP1;ratioP1;P1;durP2;ratioP2;P2;SDS_P1;SDS_P2;PMS_P1;PMS_P2;Temp;Humidity;BMP_temperature;BMP_pressure;BME280_temperature;BME280_humidity;BME280_pressure;Samples;Min_cycle;Max_cycle;Signal;HPM_P1;HPM_P2
2023/02/15 00:01:44;;;;;;;4.13;1.88;;;;;;;6.44;47.22;96313.50;5051237;28;20522;-66
2023/02/15 00:04:16;;;;;;;0.85;0.85;;;;;;;6.92;46.44;96322.88;5050818;28;20192;-65
2023/02/15 00:06:43;;;;;;;1.90;1.80;;;;;;;6.43;47.72;96327.53;5050376;28;20192;-65
2023/02/15 00:09:12;;;;;;;2.03;1.92;;;;;;;6.55;47.96;96323.34;5049196;28;20211;-66
2023/02/15 00:11:51;;;;;;;0.82;0.82;;;;;;;7.00;46.50;96320.09;5050957;28;20220;-67
2023/02/15 00:14:23;;;;;;;0.47;0.47;;;;;;;6.81;46.27;96315.63;5051925;28;20204;-65
2023/02/15 00:16:52;;;;;;;0.50;0.47;;;;;;;6.79;46.74;96333.25;5050131;28;20205;-66
2023/02/15 00:19:20;;;;;;;0.68;0.68;;;;;;;6.42;47.99;96336.34;5048760;28;20236;-66
2023/02/15 00:21:48;;;;;;;0.30;0.30;;;;;;;6.70;47.55;96326.63;5049872;28;20552;-66
2023/02/15 00:24:17;;;;;;;0.52;0.52;;;;;;;6.57;47.97;96333.59;5049852;28;20219;-66
2023/02/15 00:26:45;;;;;;;1.58;1.48;;;;;;;6.68;47.60;96335.66;5049799;28;20204;-66
2023/02/15 00:29:14;;;;;;;0.50;0.50;;;;;;;6.73;46.75;96328.81;5048565;28;20616;-66
2023/02/15 00:31:42;;;;;;;0.17;0.17;;;;;;;6.88;46.79;96337.28;5048325;28;20283;-66
2023/02/15 00:34:18;;;;;;;0.65;0.65;;;;;;;6.78;46.82;96351.69;5051597;28;20220;-65
2023/02/15 00:36:46;;;;;;;1.00;1.00;;;;;;;6.60;47.56;96341.81;5050009;28;20224;-66
2023/02/15 00:39:14;;;;;;;1.50;1.40;;;;;;;6.40;48.12;96343.56;5050974;28;20197;-66
2023/02/15 00:41:42;;;;;;;0.65;0.65;;;;;;;6.17;49.10;96345.63;5049602;28;20201;-65
2023/02/15 00:44:10;;;;;;;0.50;0.50;;;;;;;6.73;47.41;96354.88;5049849;28;20212;-66
2023/02/15 00:46:37;;;;;;;0.20;0.20;;;;;;;6.38;47.71;96350.75;5049813;28;20602;-65
2023/02/15 00:49:05;;;;;;;1.60;1.40;;;;;;;6.18;48.83;96344.66;5050935;28;20617;-65
2023/02/15 00:51:32;;;;;;;0.10;0.10;;;;;;;6.42;48.09;96345.94;5049982;28;20196;-65
2023/02/15 00:53:59;;;;;;;1.20;1.13;;;;;;;6.18;48.88;96344.66;5051204;28;20275;-65
2023/02/15 00:56:28;;;;;;;0.82;0.68;;;;;;;5.71;49.24;96336.72;5048764;28;20197;-68
2023/02/15 00:58:55;;;;;;;3.80;1.70;;;;;;;6.26;48.28;96336.66;5049930;28;20288;-67
2023/02/15 01:01:23;;;;;;;0.68;0.68;;;;;;;5.64;49.67;96346.28;5049542;28;20275;-66
2023/02/15 01:03:50;;;;;;;1.90;1.30;;;;;;;5.94;49.46;96334.69;5049396;28;20317;-67
2023/02/15 01:06:17;;;;;;;0.70;0.70;;;;;;;5.92;49.28;96326.28;5049472;28;20200;-66
2023/02/15 01:08:45;;;;;;;0.10;0.10;;;;;;;5.73;49.67;96340.72;5047909;28;20192;-65
2023/02/15 01:11:21;;;;;;;2.38;2.20;;;;;;;5.81;49.15;96339.78;5049425;28;20193;-65
2023/02/15 01:13:52;;;;;;;1.05;0.95;;;;;;;6.04;49.26;96338.56;5048117;28;20534;-68
2023/02/15 01:16:19;;;;;;;0.30;0.30;;;;;;;6.02;49.22;96334.56;5049244;28;20764;-67
2023/02/15 01:18:47;;;;;;;0.77;0.77;;;;;;;6.10;49.16;96331.78;5049509;28;20310;-69
2023/02/15 01:21:17;;;;;;;1.08;0.98;;;;;;;6.08;48.47;96328.56;5049312;28;20508;-65
2023/02/15 01:23:44;;;;;;;0.55;0.55;;;;;;;5.95;49.42;96329.28;5048394;28;20635;-65
2023/02/15 01:26:12;;;;;;;1.33;1.23;;;;;;;6.05;49.25;96323.75;5049133;28;20196;-67
2023/02/15 01:28:39;;;;;;;0.00;0.00;;;;;;;5.69;49.88;96307.50;5049038;28;20566;-67
2023/02/15 01:31:14;;;;;;;0.80;0.60;;;;;;;6.08;49.46;96323.34;5049417;28;20754;-66
2023/02/15 01:33:43;;;;;;;0.20;0.20;;;;;;;6.04;48.44;96322.13;5050291;28;20197;-68
2023/02/15 01:36:11;;;;;;;1.55;0.85;;;;;;;6.09;49.13;96319.78;5069437;28;20192;-68
2023/02/15 01:38:41;;;;;;;1.85;1.08;;;;;;;6.23;48.20;96311.03;5053955;28;20689;-68
2023/02/15 01:41:22;;;;;;;1.35;1.00;;;;;;;6.34;48.18;96302.66;5051041;28;20598;-66
2023/02/15 01:44:00;;;;;;;3.45;3.10;;;;;;;6.24;48.40;96317.81;5050500;28;20235;-65
2023/02/15 01:46:36;;;;;;;0.10;0.10;;;;;;;6.40;48.63;96316.69;5050972;28;20632;-64
2023/02/15 01:49:26;;;;;;;1.92;1.75;;;;;;;6.01;49.44;96299.09;5053263;28;20877;-66
2023/02/15 01:51:53;;;;;;;0.82;0.82;;;;;;;6.00;49.24;96315.72;5050636;28;20196;-67
2023/02/15 01:54:31;;;;;;;0.13;0.13;;;;;;;6.37;48.26;96302.25;5049851;28;20215;-66
2023/02/15 01:57:03;;;;;;;0.98;0.88;;;;;;;6.47;48.57;96307.91;5050390;28;20595;-66
2023/02/15 01:59:32;;;;;;;0.47;0.47;;;;;;;6.25;48.93;96309.03;5051675;28;20471;-66
2023/02/15 02:02:01;;;;;;;5.20;1.48;;;;;;;6.06;49.38;96304.53;5052512;28;20211;-66
2023/02/15 02:04:47;;;;;;;1.33;1.23;;;;;;;6.19;49.07;96304.59;5051575;28;20216;-67
2023/02/15 02:07:17;;;;;;;1.23;1.13;;;;;;;6.56;48.39;96298.13;5051035;28;20216;-68
2023/02/15 02:09:45;;;;;;;0.75;0.75;;;;;;;6.04;48.82;96296.09;5051104;28;20204;-68
2023/02/15 02:12:12;;;;;;;0.93;0.80;;;;;;;6.28;48.60;96305.25;5052454;28;20290;-66
2023/02/15 02:14:40;;;;;;;0.43;0.38;;;;;;;6.22;48.78;96309.44;5052570;28;20197;-66
2023/02/15 02:17:17;;;;;;;1.38;0.57;;;;;;;6.22;48.39;96309.44;5065612;28;20265;-68
2023/02/15 02:20:31;;;;;;;1.20;0.90;;;;;;;6.50;48.64;96317.94;5052464;28;20219;-66
2023/02/15 02:23:13;;;;;;;0.10;0.10;;;;;;;6.41;48.45;96321.72;5050895;28;20220;-65
2023/02/15 02:25:59;;;;;;;0.70;0.70;;;;;;;6.24;49.34;96317.81;5050047;28;20212;-66
2023/02/15 02:28:42;;;;;;;1.40;1.23;;;;;;;6.49;48.62;96321.56;5051278;28;20192;-65
2023/02/15 02:31:24;;;;;;;1.83;1.73;;;;;;;6.56;48.19;96322.38;5050935;28;20201;-66
2023/02/15 02:34:20;;;;;;;2.60;0.80;;;;;;;6.34;48.12;96302.66;5055249;28;20217;-67
2023/02/15 02:36:59;;;;;;;2.42;1.50;;;;;;;6.18;48.99;96326.44;5052481;28;20277;-67
2023/02/15 02:39:54;;;;;;;0.80;0.80;;;;;;;6.23;48.63;96337.06;5052082;28;20196;-66
2023/02/15 02:42:34;;;;;;;0.50;0.50;;;;;;;6.72;47.52;96322.00;5055906;28;20196;-67
2023/02/15 02:45:25;;;;;;;0.45;0.45;;;;;;;6.44;48.31;96323.13;5050484;28;20274;-67
2023/02/15 02:47:55;;;;;;;1.55;1.45;;;;;;;5.91;49.56;96311.69;5051688;28;20208;-67
2023/02/15 02:50:26;;;;;;;2.35;1.92;;;;;;;6.12;49.80;96324.59;5048243;28;20319;-67
2023/02/15 02:52:58;;;;;;;2.92;1.88;;;;;;;6.03;49.60;96321.34;5052811;28;20593;-66
2023/02/15 02:55:49;;;;;;;0.10;0.10;;;;;;;6.81;48.09;96318.22;5049871;28;20201;-66
2023/02/15 02:58:36;;;;;;;0.20;0.20;;;;;;;6.46;48.26;96314.09;5049402;28;20258;-64
2023/02/15 03:01:13;;;;;;;0.20;0.20;;;;;;;6.74;48.22;96324.41;5051532;28;20255;-68
2023/02/15 03:03:53;;;;;;;0.10;0.10;;;;;;;6.49;48.28;96326.75;5050693;28;20289;-68
2023/02/15 03:06:30;;;;;;;0.28;0.28;;;;;;;6.69;47.66;96326.81;5050889;28;20197;-69
2023/02/15 03:09:03;;;;;;;0.63;0.63;;;;;;;6.10;49.25;96329.19;5051242;28;20204;-67
2023/02/15 03:11:30;;;;;;;0.73;0.73;;;;;;;6.43;48.53;96342.34;5050360;28;20208;-66
2023/02/15 03:13:58;;;;;;;2.03;1.88;;;;;;;6.48;48.82;96345.97;5056894;28;20193;-67
2023/02/15 03:16:26;;;;;;;0.00;0.00;;;;;;;6.80;48.08;96347.91;5052053;28;20201;-64
2023/02/15 03:19:08;;;;;;;1.50;1.08;;;;;;;6.48;48.85;96345.97;5049298;28;20293;-67
2023/02/15 03:21:57;;;;;;;1.45;1.35;;;;;;;6.40;48.54;96340.13;5048671;28;20189;-68
2023/02/15 03:24:34;;;;;;;0.70;0.70;;;;;;;6.64;48.59;96356.03;5052475;28;20228;-64
2023/02/15 03:27:11;;;;;;;0.85;0.85;;;;;;;6.23;49.57;96341.44;5048592;28;20198;-65
2023/02/15 03:29:39;;;;;;;0.30;0.30;;;;;;;5.85;50.57;96348.84;5047938;28;20201;-66
2023/02/15 03:32:11;;;;;;;0.65;0.65;;;;;;;6.51;49.39;96343.00;5048427;28;20188;-65
2023/02/15 03:34:38;;;;;;;5.88;1.08;;;;;;;6.46;49.16;96340.16;5082315;28;20239;-67
2023/02/15 03:37:11;;;;;;;0.30;0.30;;;;;;;6.53;48.54;96343.56;5050893;28;20207;-66
2023/02/15 03:39:46;;;;;;;0.50;0.50;;;;;;;6.78;49.02;96334.25;5051462;28;20200;-66
2023/02/15 03:42:17;;;;;;;0.15;0.15;;;;;;;6.47;48.84;96341.78;5050607;28;20747;-66
2023/02/15 03:44:52;;;;;;;0.20;0.20;;;;;;;6.65;48.78;96336.81;5050929;28;20764;-65
2023/02/15 03:47:28;;;;;;;0.10;0.10;;;;;;;6.44;49.44;96334.31;5050663;28;20702;-67
2023/02/15 03:50:00;;;;;;;0.00;0.00;;;;;;;6.46;48.80;96336.75;5051415;28;20294;-66
2023/02/15 03:52:30;;;;;;;0.20;0.20;;;;;;;6.47;48.82;96333.97;5052814;28;20203;-67
2023/02/15 03:54:57;;;;;;;3.83;1.98;;;;;;;6.25;49.78;96345.47;5053128;28;20307;-66
2023/02/15 04:03:28;;;;;;;0.00;0.00;;;;;;;6.60;48.97;96344.44;5051453;28;20212;-66
2023/02/15 04:05:55;;;;;;;4.68;3.03;;;;;;;6.49;49.13;96336.38;5051228;28;20200;-67
2023/02/15 04:10:51;;;;;;;0.00;0.00;;;;;;;6.43;49.10;96348.34;5052495;28;20193;-66
2023/02/15 04:11:09;;;;;;;2.50;1.77;;;;;;;6.82;49.08;96348.50;5050576;28;20200;-66
2023/02/15 04:13:36;;;;;;;0.98;0.98;;;;;;;6.47;49.58;96338.34;5050840;28;20212;-66
2023/02/15 04:16:03;;;;;;;1.95;1.80;;;;;;;6.62;48.84;96323.38;5049707;28;20300;-68
2023/02/15 04:27:02;;;;;;;0.88;0.85;;;;;;;6.87;48.98;96371.34;5052352;28;20227;-64
2023/02/15 04:29:29;;;;;;;0.98;0.98;;;;;;;6.82;48.36;96369.34;5051573;28;20275;-66
2023/02/15 04:31:57;;;;;;;3.63;1.58;;;;;;;6.70;48.65;96370.91;5049814;28;20224;-65
2023/02/15 04:34:25;;;;;;;0.47;0.47;;;;;;;6.98;48.06;96379.41;5054037;28;20192;-67
2023/02/15 04:36:52;;;;;;;0.40;0.40;;;;;;;7.19;47.72;96375.81;5050306;28;20291;-66
2023/02/15 04:39:18;;;;;;;2.20;2.05;;;;;;;7.01;48.33;96379.00;5049644;28;20204;-66
2023/02/15 04:41:45;;;;;;;0.30;0.30;;;;;;;7.11;48.22;96389.88;5060613;28;20414;-65
2023/02/15 04:44:12;;;;;;;0.05;0.05;;;;;;;6.59;48.62;96379.28;5049851;28;20260;-64
2023/02/15 04:46:39;;;;;;;1.50;1.40;;;;;;;6.86;48.77;96380.19;5049177;28;20197;-67
2023/02/15 04:49:06;;;;;;;0.82;0.82;;;;;;;6.63;49.06;96372.69;5050380;28;20592;-65
2023/02/15 04:51:33;;;;;;;0.47;0.45;;;;;;;6.47;49.15;96378.22;5049890;28;20200;-66
2023/02/15 04:54:00;;;;;;;0.50;0.50;;;;;;;7.01;48.55;96373.81;5049856;28;20646;-66
2023/02/15 04:56:26;;;;;;;5.32;1.00;;;;;;;7.32;47.55;96388.09;5049172;28;20261;-67
2023/02/15 04:58:53;;;;;;;2.30;1.67;;;;;;;7.22;48.15;96379.84;5048713;28;20311;-67
2023/02/15 05:01:20;;;;;;;0.95;0.90;;;;;;;7.35;47.90;96385.09;5048359;28;20568;-65
2023/02/15 05:03:47;;;;;;;2.40;1.50;;;;;;;7.40;47.62;96385.28;5049149;28;20337;-66
2023/02/15 05:06:14;;;;;;;0.08;0.08;;;;;;;7.36;47.50;96387.50;5047650;28;20193;-66
2023/02/15 05:08:40;;;;;;;0.30;0.30;;;;;;;7.39;47.17;96376.66;5049333;28;20193;-66
2023/02/15 05:11:07;;;;;;;1.55;1.42;;;;;;;6.96;48.08;96397.03;5047967;28;20242;-68
2023/02/15 05:13:34;;;;;;;0.63;0.63;;;;;;;7.07;47.83;96399.09;5048077;28;20288;-66
2023/02/15 05:16:01;;;;;;;1.20;1.20;;;;;;;6.94;48.70;96391.22;5048416;28;20243;-65
2023/02/15 05:18:28;;;;;;;0.88;0.88;;;;;;;7.34;47.76;96405.13;5048906;28;20243;-67
2023/02/15 05:20:56;;;;;;;1.38;1.30;;;;;;;7.19;47.89;96400.09;5047815;28;20200;-69
2023/02/15 05:23:23;;;;;;;1.90;1.63;;;;;;;6.71;48.56;96408.19;5049058;28;20192;-67
2023/02/15 05:28:37;;;;;;;0.47;0.47;;;;;;;7.42;47.29;96412.78;5050038;28;20211;-68
2023/02/15 05:31:16;;;;;;;0.88;0.85;;;;;;;7.37;47.73;96424.81;5048861;28;20659;-67
2023/02/15 05:33:44;;;;;;;1.55;0.85;;;;;;;7.22;48.17;96411.13;5049330;28;20258;-63
2023/02/15 05:36:11;;;;;;;0.45;0.45;;;;;;;7.38;47.14;96427.22;5048724;28;20193;-65
2023/02/15 05:38:39;;;;;;;0.20;0.20;;;;;;;7.23;47.93;96423.97;5049448;28;20303;-63
2023/02/15 05:41:07;;;;;;;1.05;1.05;;;;;;;6.78;48.35;96415.03;5054401;28;20292;-66
2023/02/15 05:43:35;;;;;;;0.40;0.40;;;;;;;7.36;51.01;96415.38;5053722;28;20228;-67
2023/02/15 05:46:02;;;;;;;0.55;0.55;;;;;;;7.47;50.26;96420.00;5048326;28;20192;-69
2023/02/15 05:48:31;;;;;;;7.28;3.05;;;;;;;7.40;51.20;96404.34;5048741;28;20204;-71
2023/02/15 05:51:04;;;;;;;0.20;0.20;;;;;;;7.36;48.10;96423.19;5048396;28;20192;-69
2023/02/15 05:53:33;;;;;;;1.95;1.40;;;;;;;7.41;47.48;96415.59;5049823;28;20184;-66
2023/02/15 05:56:02;;;;;;;1.35;1.25;;;;;;;7.34;47.91;96427.78;5049180;28;20205;-68
2023/02/15 05:58:32;;;;;;;1.02;1.02;;;;;;;7.67;47.56;96420.81;5048420;28;20271;-72
2023/02/15 06:00:59;;;;;;;1.58;1.50;;;;;;;7.33;47.41;96402.75;5047894;28;20200;-69
2023/02/15 06:03:28;;;;;;;3.13;1.83;;;;;;;7.53;48.13;96419.22;5047722;28;20196;-71
2023/02/15 06:05:55;;;;;;;0.43;0.43;;;;;;;7.67;47.10;96428.66;5047127;28;20647;-69
2023/02/15 06:08:22;;;;;;;4.00;3.10;;;;;;;7.43;47.52;96418.78;5050382;28;20208;-67
2023/02/15 06:10:48;;;;;;;1.02;0.93;;;;;;;7.11;47.72;96426.38;5050901;28;20200;-67
2023/02/15 06:13:15;;;;;;;3.13;0.93;;;;;;;6.96;48.41;96412.69;5051284;28;20267;-66
2023/02/15 06:15:42;;;;;;;0.30;0.30;;;;;;;7.33;47.47;96410.56;5048236;28;20204;-67
2023/02/15 06:18:09;;;;;;;0.10;0.10;;;;;;;7.48;47.28;96427.63;5047836;28;20262;-67
2023/02/15 06:20:36;;;;;;;2.92;2.15;;;;;;;7.28;47.10;96428.59;5052540;28;20287;-68
2023/02/15 06:23:03;;;;;;;1.13;1.13;;;;;;;7.94;46.44;96438.91;5055580;28;20235;-66
2023/02/15 06:25:29;;;;;;;1.30;1.30;;;;;;;7.95;46.95;96429.28;5051566;28;20306;-68
2023/02/15 06:27:56;;;;;;;0.80;0.47;;;;;;;7.78;46.71;96425.44;5051607;28;20204;-67
2023/02/15 06:30:23;;;;;;;0.68;0.68;;;;;;;7.52;47.38;96438.50;5052405;28;20680;-67
2023/02/15 06:32:50;;;;;;;2.00;1.00;;;;;;;7.72;46.43;96429.66;5052588;28;20196;-66
2023/02/15 06:35:17;;;;;;;1.73;1.60;;;;;;;7.97;46.56;96425.44;5062848;28;20205;-66
2023/02/15 06:37:46;;;;;;;0.90;0.90;;;;;;;7.60;47.10;96435.69;5054399;28;20200;-66
2023/02/15 06:40:14;;;;;;;1.90;0.88;;;;;;;7.45;46.79;96411.56;5049676;28;21003;-66
2023/02/15 06:42:42;;;;;;;0.90;0.85;;;;;;;7.49;47.38;96423.22;5049829;28;20197;-66
2023/02/15 06:45:10;;;;;;;0.80;0.55;;;;;;;7.62;46.60;96431.06;5050151;28;20215;-66
2023/02/15 06:47:36;;;;;;;1.48;1.25;;;;;;;8.14;45.73;96433.66;5051225;28;20196;-67
2023/02/15 06:50:06;;;;;;;0.20;0.20;;;;;;;7.69;46.95;96440.50;5052071;28;20748;-66
2023/02/15 06:52:33;;;;;;;0.30;0.30;;;;;;;7.80;46.57;96436.50;5053140;28;20203;-67
2023/02/15 06:55:00;;;;;;;2.00;1.85;;;;;;;7.17;48.00;96425.56;5052327;28;20200;-67
2023/02/15 06:57:27;;;;;;;1.48;1.38;;;;;;;7.82;46.21;96416.22;5051902;28;20520;-68
2023/02/15 06:59:53;;;;;;;0.40;0.40;;;;;;;6.87;48.73;96432.09;5051775;28;20209;-66
2023/02/15 07:02:20;;;;;;;0.25;0.25;;;;;;;7.33;47.74;96408.75;5051600;28;20232;-68
2023/02/15 07:04:47;;;;;;;1.65;1.55;;;;;;;8.07;46.16;96422.44;5051706;28;20224;-67
2023/02/15 07:07:14;;;;;;;3.50;1.38;;;;;;;7.69;46.52;96422.25;5051405;28;20250;-69
2023/02/15 07:09:41;;;;;;;0.45;0.45;;;;;;;7.45;46.72;96432.44;5052077;28;20193;-67
2023/02/15 07:14:54;;;;;;;1.00;1.00;;;;;;;8.14;45.97;96428.44;5052428;28;20208;-68
2023/02/15 07:17:22;;;;;;;7.40;0.88;;;;;;;7.68;46.27;96428.44;5051441;28;20197;-68
2023/02/15 07:20:09;;;;;;;0.32;0.32;;;;;;;8.01;45.61;96438.91;5051532;28;20208;-67
2023/02/15 07:22:36;;;;;;;0.63;0.63;;;;;;;7.90;45.71;96445.53;5051764;28;20811;-65
2023/02/15 07:25:05;;;;;;;0.35;0.35;;;;;;;7.78;45.94;96454.16;5051695;28;20216;-66
2023/02/15 07:27:32;;;;;;;0.03;0.03;;;;;;;7.83;46.05;96436.06;5051563;28;20199;-68
2023/02/15 07:30:00;;;;;;;0.35;0.35;;;;;;;8.32;45.11;96415.59;5051641;28;20216;-64
2023/02/15 07:32:31;;;;;;;0.17;0.17;;;;;;;8.17;44.63;96422.84;5051566;28;20200;-66
2023/02/15 07:34:59;;;;;;;0.68;0.68;;;;;;;8.02;45.03;96419.63;5052089;28;20656;-66
2023/02/15 07:37:26;;;;;;;0.10;0.10;;;;;;;8.24;44.97;96431.50;5052163;28;20189;-66
2023/02/15 07:39:53;;;;;;;0.30;0.30;;;;;;;7.75;46.02;96426.66;5051752;28;20223;-66
2023/02/15 07:42:21;;;;;;;2.08;1.45;;;;;;;7.89;45.75;96420.44;5050810;28;20223;-67
2023/02/15 07:44:48;;;;;;;0.68;0.68;;;;;;;7.58;45.62;96428.06;5051382;28;20362;-68
2023/02/15 07:47:15;;;;;;;1.17;1.17;;;;;;;7.96;45.66;96430.88;5050693;28;20586;-67
2023/02/15 07:49:42;;;;;;;0.55;0.45;;;;;;;7.96;45.27;96425.66;5050708;28;20228;-72
2023/02/15 07:52:09;;;;;;;1.55;1.48;;;;;;;8.41;44.88;96424.81;5050896;28;20597;-65
2023/02/15 07:54:36;;;;;;;1.60;1.50;;;;;;;8.10;44.69;96422.81;5052829;28;20205;-67
2023/02/15 07:57:03;;;;;;;1.23;0.73;;;;;;;8.25;44.91;96409.56;5054128;28;20184;-65
2023/02/15 07:59:30;;;;;;;2.88;2.10;;;;;;;7.93;44.75;96413.81;5062018;28;20192;-68
2023/02/15 08:01:57;;;;;;;1.75;1.65;;;;;;;8.16;45.16;96421.22;5060225;28;20210;-67
2023/02/15 08:04:24;;;;;;;0.73;0.73;;;;;;;8.56;43.84;96401.88;5058544;28;20251;-66
2023/02/15 08:06:54;;;;;;;2.00;1.35;;;;;;;8.23;44.88;96427.22;5056593;28;20617;-67
2023/02/15 08:09:22;;;;;;;0.90;0.90;;;;;;;8.40;44.38;96420.59;5052392;28;20262;-67
2023/02/15 08:11:49;;;;;;;0.95;0.82;;;;;;;8.44;44.69;96424.41;5051151;28;20349;-67
2023/02/15 08:14:21;;;;;;;0.17;0.17;;;;;;;8.68;44.07;96421.13;5050886;28;20212;-66
2023/02/15 08:16:55;;;;;;;1.73;1.58;;;;;;;9.08;44.05;96422.59;5050917;28;20715;-67
2023/02/15 08:19:24;;;;;;;0.57;0.57;;;;;;;9.51;42.61;96422.72;5052761;28;20552;-66
2023/02/15 08:21:59;;;;;;;1.67;1.42;;;;;;;8.58;43.63;96415.53;5049847;28;20552;-66
2023/02/15 08:24:30;;;;;;;0.38;0.38;;;;;;;8.91;42.96;96410.19;5049879;28;20270;-67
2023/02/15 08:26:58;;;;;;;0.00;0.00;;;;;;;8.76;43.99;96427.91;5049474;28;20204;-67
2023/02/15 08:29:27;;;;;;;1.05;1.05;;;;;;;8.84;43.64;96419.88;5049477;28;20250;-66
2023/02/15 08:32:02;;;;;;;9.38;1.70;;;;;;;8.88;43.42;96434.94;5049664;28;20273;-65
2023/02/15 08:34:40;;;;;;;0.15;0.15;;;;;;;8.74;42.99;96425.53;5050042;28;20200;-68
2023/02/15 08:37:08;;;;;;;0.28;0.28;;;;;;;8.99;42.77;96434.28;5049499;28;20200;-68
2023/02/15 08:39:34;;;;;;;5.80;2.28;;;;;;;8.76;43.08;96423.50;5048208;28;20239;-66
2023/02/15 08:42:02;;;;;;;0.35;0.35;;;;;;;8.71;42.76;96425.94;5049123;28;20220;-67
2023/02/15 08:44:29;;;;;;;0.70;0.70;;;;;;;8.91;42.87;96436.31;5048945;28;20267;-66
2023/02/15 08:47:02;;;;;;;0.55;0.28;;;;;;;7.91;44.17;96428.88;5049789;28;20214;-66
2023/02/15 08:49:29;;;;;;;0.20;0.20;;;;;;;8.82;42.97;96427.91;5051360;28;20230;-68
2023/02/15 08:51:56;;;;;;;0.80;0.77;;;;;;;8.73;42.78;96434.38;5049052;28;20192;-66
2023/02/15 08:54:23;;;;;;;0.93;0.85;;;;;;;8.95;42.70;96435.72;5049723;28;20288;-67
2023/02/15 08:56:49;;;;;;;3.42;1.13;;;;;;;8.83;42.67;96408.59;5049011;28;20651;-67
2023/02/15 08:59:19;;;;;;;0.88;0.88;;;;;;;8.96;42.55;96432.06;5050456;28;20185;-68
2023/02/15 09:01:47;;;;;;;0.45;0.45;;;;;;;8.19;43.11;96432.06;5050762;28;20280;-68
2023/02/15 09:04:15;;;;;;;0.47;0.47;;;;;;;8.93;41.80;96440.34;5050920;28;20283;-69
2023/02/15 09:06:46;;;;;;;0.30;0.30;;;;;;;8.98;41.54;96443.13;5049469;28;20203;-68
2023/02/15 09:09:16;;;;;;;0.05;0.05;;;;;;;8.61;41.89;96436.00;5049148;28;20208;-67
2023/02/15 09:11:45;;;;;;;1.02;1.02;;;;;;;8.86;41.94;96439.56;5056706;28;20217;-68
2023/02/15 09:14:19;;;;;;;0.68;0.68;;;;;;;8.91;42.12;96418.03;5052917;28;20733;-67
2023/02/15 09:16:49;;;;;;;0.03;0.03;;;;;;;9.59;40.89;96427.72;5049022;28;20658;-66
2023/02/15 09:19:19;;;;;;;1.95;1.05;;;;;;;9.57;40.55;96431.53;5049414;28;20236;-65
2023/02/15 09:21:46;;;;;;;0.38;0.38;;;;;;;9.38;40.39;96433.28;5049403;28;20196;-66
2023/02/15 09:24:15;;;;;;;0.00;0.00;;;;;;;9.40;40.52;96440.94;5049171;28;20228;-67
2023/02/15 09:26:44;;;;;;;0.25;0.25;;;;;;;9.63;40.89;96420.25;5048876;28;20200;-68
2023/02/15 09:29:12;;;;;;;0.00;0.00;;;;;;;9.84;39.93;96432.97;5048618;28;20206;-66
2023/02/15 09:31:48;;;;;;;0.35;0.35;;;;;;;9.36;40.45;96439.75;5048724;28;20271;-66
2023/02/15 09:34:18;;;;;;;0.10;0.10;;;;;;;9.70;40.20;96434.09;5049070;28;20204;-66
2023/02/15 09:36:46;;;;;;;2.40;1.75;;;;;;;9.56;39.63;96429.97;5048901;28;20227;-67
2023/02/15 09:39:23;;;;;;;0.60;0.60;;;;;;;9.87;39.85;96414.22;5046913;28;20239;-66
2023/02/15 09:41:56;;;;;;;0.75;0.75;;;;;;;9.26;40.67;96431.53;5048140;28;20601;-67
2023/02/15 09:44:57;;;;;;;1.55;1.38;;;;;;;8.85;41.43;96432.72;5049100;28;20649;-67
2023/02/15 09:47:45;;;;;;;0.10;0.10;;;;;;;9.65;40.70;96431.31;5049838;28;20203;-68
2023/02/15 09:50:43;;;;;;;1.50;1.25;;;;;;;9.59;39.74;96427.72;5055339;28;20196;-67
2023/02/15 09:53:29;;;;;;;0.00;0.00;;;;;;;9.63;40.13;96426.28;5053344;28;20196;-67
2023/02/15 09:56:38;;;;;;;0.05;0.05;;;;;;;9.70;39.97;96421.00;5050799;28;20200;-68
2023/02/15 09:59:30;;;;;;;0.68;0.68;;;;;;;9.89;39.88;96422.69;5053481;28;20703;-66
2023/02/15 10:02:35;;;;;;;1.10;0.77;;;;;;;9.81;39.93;96417.69;5053782;28;20193;-67
2023/02/15 10:05:27;;;;;;;0.45;0.45;;;;;;;9.68;40.36;96423.03;5051783;28;20224;-66
2023/02/15 10:07:55;;;;;;;0.43;0.25;;;;;;;9.97;39.05;96411.91;5056365;28;20261;-67
2023/02/15 10:10:41;;;;;;;0.30;0.30;;;;;;;9.69;39.51;96407.09;5063045;28;20226;-69
2023/02/15 10:13:07;;;;;;;0.20;0.20;;;;;;;8.73;41.16;96405.63;5052837;28;20246;-68
2023/02/15 10:15:57;;;;;;;1.42;0.82;;;;;;;9.09;41.57;96403.25;5065519;28;20632;-65
2023/02/15 10:18:38;;;;;;;0.95;0.60;;;;;;;9.83;40.08;96399.97;5051749;28;20232;-67
2023/02/15 10:21:21;;;;;;;0.22;0.22;;;;;;;9.19;40.32;96402.81;5051855;28;20560;-66
2023/02/15 10:24:04;;;;;;;0.40;0.40;;;;;;;9.73;40.04;96407.47;5051642;28;20291;-68
2023/02/15 10:26:45;;;;;;;0.10;0.10;;;;;;;9.30;40.62;96401.34;5051840;28;20289;-69
2023/02/15 10:29:16;;;;;;;4.07;1.75;;;;;;;9.50;40.42;96396.78;5051550;28;20200;-67
2023/02/15 10:32:01;;;;;;;1.25;1.00;;;;;;;9.98;39.33;96393.38;5051971;28;20291;-67
2023/02/15 10:34:40;;;;;;;0.30;0.30;;;;;;;9.87;39.53;96388.81;5052433;28;20296;-69
2023/02/15 10:37:28;;;;;;;2.85;2.55;;;;;;;10.05;39.13;96398.56;5051743;28;20218;-65
2023/02/15 10:40:05;;;;;;;6.07;0.93;;;;;;;9.63;39.31;96378.38;5052686;28;20205;-69
2023/02/15 10:43:04;;;;;;;0.30;0.30;;;;;;;9.88;39.33;96390.44;5051954;28;20200;-68
2023/02/15 10:45:57;;;;;;;0.88;0.88;;;;;;;9.92;38.96;96373.31;5051245;28;20670;-67
2023/02/15 10:48:42;;;;;;;0.88;0.47;;;;;;;9.99;39.03;96381.88;5063943;28;20230;-65
2023/02/15 10:51:26;;;;;;;0.43;0.43;;;;;;;9.78;39.79;96360.53;5051815;28;20562;-69
2023/02/15 10:54:30;;;;;;;1.20;1.00;;;;;;;9.00;40.66;96378.38;5052239;28;20196;-67
2023/02/15 10:57:36;;;;;;;1.00;0.95;;;;;;;9.31;40.58;96387.22;5051509;28;20230;-72
2023/02/15 11:00:38;;;;;;;1.00;1.00;;;;;;;9.12;40.96;96371.44;5052271;28;20200;-71
2023/02/15 11:03:51;;;;;;;1.45;1.35;;;;;;;8.98;41.25;96380.38;5065173;28;20207;-68
2023/02/15 11:06:21;;;;;;;2.33;1.33;;;;;;;10.53;39.19;96360.19;5050871;28;20209;-66
2023/02/15 11:08:56;;;;;;;0.20;0.20;;;;;;;10.09;38.41;96355.25;5053939;28;20199;-66
2023/02/15 11:11:29;;;;;;;0.95;0.95;;;;;;;9.44;39.90;96360.97;5052403;28;20196;-70
2023/02/15 11:14:05;;;;;;;1.58;0.73;;;;;;;9.60;39.99;96365.72;5053197;28;20631;-67
2023/02/15 11:16:36;;;;;;;2.47;2.28;;;;;;;9.52;40.45;96371.19;5051142;28;20224;-69
2023/02/15 11:19:16;;;;;;;0.55;0.55;;;;;;;9.23;40.90;96368.16;5055032;28;20228;-65
2023/02/15 11:21:49;;;;;;;1.95;0.77;;;;;;;9.58;39.96;96370.38;5054809;28;20258;-70
2023/02/15 11:24:19;;;;;;;5.68;1.00;;;;;;;10.04;39.50;96355.03;5051524;28;20196;-66
2023/02/15 11:26:56;;;;;;;0.32;0.32;;;;;;;9.93;39.22;96359.19;5050866;28;20232;-70
2023/02/15 11:29:31;;;;;;;1.00;1.00;;;;;;;10.04;39.57;96357.66;5051062;28;20600;-66
2023/02/15 11:32:13;;;;;;;0.28;0.28;;;;;;;10.32;38.82;96352.78;5051272;28;20232;-67
2023/02/15 11:35:12;;;;;;;0.30;0.30;;;;;;;9.66;39.22;96352.56;5051782;28;20197;-68
2023/02/15 11:38:05;;;;;;;0.00;0.00;;;;;;;9.39;40.11;96355.59;5065204;28;20227;-66
2023/02/15 11:40:41;;;;;;;1.17;1.10;;;;;;;9.99;38.90;96357.50;5051731;28;20192;-67
2023/02/15 11:43:14;;;;;;;0.17;0.17;;;;;;;9.77;39.18;96356.28;5052011;28;20485;-66
2023/02/15 11:45:44;;;;;;;1.35;1.10;;;;;;;9.51;39.72;96353.88;5050507;28;20302;-67
2023/02/15 11:48:15;;;;;;;4.05;1.75;;;;;;;9.44;39.86;96345.28;5052029;28;20211;-65
2023/02/15 11:50:44;;;;;;;2.22;1.55;;;;;;;9.72;39.32;96343.88;5055312;28;20269;-66
2023/02/15 11:53:24;;;;;;;0.63;0.63;;;;;;;10.25;39.23;96340.78;5053291;28;20621;-68
2023/02/15 11:55:52;;;;;;;1.77;1.50;;;;;;;10.76;38.23;96330.69;5050456;28;20235;-67
2023/02/15 11:58:41;;;;;;;0.33;0.33;;;;;;;11.32;37.21;96319.81;5051306;28;20231;-66
2023/02/15 12:01:27;;;;;;;0.73;0.43;;;;;;;11.30;37.18;96319.22;5051987;28;20439;-68
2023/02/15 12:03:58;;;;;;;1.53;1.10;;;;;;;11.23;36.98;96299.16;5051293;28;20193;-68
2023/02/15 12:06:29;;;;;;;0.30;0.30;;;;;;;11.27;36.99;96303.94;5055017;28;20538;-69
2023/02/15 12:09:05;;;;;;;0.60;0.60;;;;;;;11.96;36.11;96296.16;5058782;28;20445;-66
2023/02/15 12:11:41;;;;;;;2.17;1.03;;;;;;;12.12;34.87;96312.03;5050852;28;20439;-67
2023/02/15 12:14:11;;;;;;;1.20;1.10;;;;;;;12.10;35.34;96300.13;5050241;28;20443;-67
2023/02/15 12:16:54;;;;;;;0.10;0.10;;;;;;;12.10;34.71;96300.13;5050183;28;20508;-73
2023/02/15 12:19:40;;;;;;;4.67;1.67;;;;;;;11.74;35.50;96295.13;5048908;28;20482;-68
2023/02/15 12:22:36;;;;;;;0.60;0.60;;;;;;;12.12;34.78;96292.81;5049310;28;20443;-67
2023/02/15 12:25:21;;;;;;;3.97;2.30;;;;;;;12.49;35.09;96277.53;5050047;28;20431;-69
2023/02/15 12:27:49;;;;;;;0.40;0.40;;;;;;;12.32;34.51;96285.34;5050478;28;20887;-67
2023/02/15 12:30:30;;;;;;;0.83;0.73;;;;;;;12.21;34.73;96286.19;5050184;28;20839;-68